This is the latest recevied weather packets stored in our database for station/object AD8BV. If no packets are shown the sender has not sent any weather packets the latest 10 day(s).
| Time | Temp. | Humidity | Pressure | Rain* | Wind** | Luminosity | Snow |
|---|---|---|---|---|---|---|---|
| 1778028341 | 9.44° C | 58% | 1010 hPa | 0 mm | - | 0 W/m² | - |
| 1778028038 | 9.44° C | 57% | 1010 hPa | 0 mm | - | 0 W/m² | - |
| 1778027734 | 9.44° C | 58% | 1010.1 hPa | 0 mm | - | 1 W/m² | - |
| 1778027430 | 9.44° C | 56% | 1010.1 hPa | 0 mm | - | 2 W/m² | - |
| 1778027126 | 9.44° C | 57% | 1010.1 hPa | 0 mm | - | 3 W/m² | - |
| 1778026822 | 9.44° C | 59% | 1010.1 hPa | 0 mm | - | 4 W/m² | - |
| 1778026519 | 10° C | 59% | 1010 hPa | 0 mm | - | 6 W/m² | - |
| 1778026216 | 10° C | 60% | 1010.1 hPa | 0 mm | - | 9 W/m² | - |
| 1778025914 | 10° C | 56% | 1010.1 hPa | 0 mm | - | 6 W/m² | - |
| 1778025611 | 10° C | 57% | 1010 hPa | 0 mm | - | 9 W/m² | - |
| 1778025309 | 10° C | 57% | 1010 hPa | 0 mm | - | 10 W/m² | - |
| 1778025005 | 10° C | 58% | 1010.2 hPa | 0 mm | - | 6 W/m² | - |
| 1778024702 | 10° C | 57% | 1009.9 hPa | 0 mm | - | 9 W/m² | - |
| 1778024399 | 10° C | 56% | 1009.8 hPa | 0 mm | - | 10 W/m² | - |
| 1778024096 | 10° C | 55% | 1010 hPa | 0 mm | - | 12 W/m² | - |
| 1778023794 | 10° C | 55% | 1010 hPa | 0 mm | - | 14 W/m² | - |
| 1778023492 | 10.56° C | 56% | 1010 hPa | 0 mm | - | 15 W/m² | - |
| 1778023189 | 10.56° C | 59% | 1009.7 hPa | 0 mm | - | 28 W/m² | - |
| 1778022886 | 10.56° C | 53% | 1010.1 hPa | 0 mm | - | 21 W/m² | - |
| 1778022584 | 10.56° C | 53% | 1009.7 hPa | 0 mm | - | 32 W/m² | - |
| 1778022281 | 10.56° C | 51% | 1009.8 hPa | 0 mm | - | 41 W/m² | - |
| 1778021978 | 10.56° C | 53% | 1009.8 hPa | 0 mm | - | 38 W/m² | - |
| 1778021675 | 10.56° C | 54% | 1009.9 hPa | 0 mm | - | 48 W/m² | - |
| 1778021371 | 11.11° C | 51% | 1009.9 hPa | 0 mm | - | 43 W/m² | - |
| 1778021068 | 11.11° C | 51% | 1009.7 hPa | 0 mm | - | 51 W/m² | - |
* Rain latest hour (hover to see other rain measurements)
** Current wind speed in m/s (hover to see current wind gust speed)